createdAt,value
2023-02-15T00:00:42.593Z,1025.43
2023-02-15T00:01:42.658Z,1025.37
2023-02-15T00:02:42.589Z,1025.40
2023-02-15T00:03:42.583Z,1025.39
2023-02-15T00:04:42.584Z,1025.39
2023-02-15T00:05:42.592Z,1025.40
2023-02-15T00:06:42.626Z,1025.35
2023-02-15T00:07:42.589Z,1025.36
2023-02-15T00:08:42.597Z,1025.35
2023-02-15T00:09:42.595Z,1025.33
2023-02-15T00:10:42.593Z,1025.29
2023-02-15T00:11:42.605Z,1025.31
2023-02-15T00:12:42.601Z,1025.28
2023-02-15T00:13:42.599Z,1025.27
2023-02-15T00:14:42.599Z,1025.22
2023-02-15T00:15:42.612Z,1025.24
2023-02-15T00:16:42.690Z,1025.22
2023-02-15T00:17:42.617Z,1025.23
2023-02-15T00:18:42.614Z,1025.19
2023-02-15T00:19:42.612Z,1025.22
2023-02-15T00:20:42.609Z,1025.18
2023-02-15T00:21:42.609Z,1025.20
2023-02-15T00:22:42.649Z,1025.23
2023-02-15T00:23:42.619Z,1025.17
2023-02-15T00:24:42.613Z,1025.17
2023-02-15T00:25:42.625Z,1025.16
2023-02-15T00:26:42.624Z,1025.16
2023-02-15T00:27:42.621Z,1025.18
2023-02-15T00:28:42.631Z,1025.18
2023-02-15T00:29:42.637Z,1025.15
2023-02-15T00:30:42.661Z,1025.14
2023-02-15T00:31:42.704Z,1025.18
2023-02-15T00:32:42.633Z,1025.16
2023-02-15T00:33:42.642Z,1025.18
2023-02-15T00:34:42.638Z,1025.16
2023-02-15T00:35:42.632Z,1025.17
2023-02-15T00:36:42.631Z,1025.16
2023-02-15T00:37:42.641Z,1025.19
2023-02-15T00:38:42.658Z,1025.17
2023-02-15T00:39:42.647Z,1025.19
2023-02-15T00:40:42.645Z,1025.19
2023-02-15T00:41:42.641Z,1025.19
2023-02-15T00:42:42.653Z,1025.16
2023-02-15T00:43:42.654Z,1025.19
2023-02-15T00:44:42.652Z,1025.18
2023-02-15T00:45:42.665Z,1025.19
2023-02-15T00:46:42.663Z,1025.22
2023-02-15T00:47:42.659Z,1025.19
2023-02-15T00:48:42.658Z,1025.23
2023-02-15T00:49:42.675Z,1025.18
2023-02-15T00:50:42.656Z,1025.16
2023-02-15T00:51:42.667Z,1025.14
2023-02-15T00:52:42.657Z,1025.15
2023-02-15T00:53:42.664Z,1025.14
2023-02-15T00:54:42.682Z,1025.14
2023-02-15T00:55:42.675Z,1025.09
2023-02-15T00:56:42.663Z,1025.08
2023-02-15T00:57:42.671Z,1025.07
2023-02-15T00:58:42.667Z,1025.07
2023-02-15T00:59:42.675Z,1025.06
2023-02-15T01:00:42.668Z,1025.00
2023-02-15T01:01:42.677Z,1024.99
2023-02-15T01:02:42.673Z,1024.97
2023-02-15T01:03:42.682Z,1024.95
2023-02-15T01:04:42.741Z,1024.94
2023-02-15T01:05:42.685Z,1024.93
2023-02-15T01:06:42.686Z,1024.93
2023-02-15T01:07:42.691Z,1024.93
2023-02-15T01:08:42.691Z,1024.94
2023-02-15T01:09:42.705Z,1024.94
2023-02-15T01:10:42.708Z,1024.92
2023-02-15T01:11:42.693Z,1024.96
2023-02-15T01:12:42.691Z,1024.95
2023-02-15T01:13:42.689Z,1024.93
2023-02-15T01:14:42.693Z,1024.92
2023-02-15T01:15:44.089Z,1024.96
2023-02-15T01:16:42.696Z,1024.96
2023-02-15T01:17:42.700Z,1024.95
2023-02-15T01:18:42.701Z,1024.91
2023-02-15T01:19:42.705Z,1024.94
2023-02-15T01:20:42.701Z,1024.89
2023-02-15T01:21:42.704Z,1024.88
2023-02-15T01:22:42.715Z,1024.85
2023-02-15T01:23:42.713Z,1024.84
2023-02-15T01:24:42.706Z,1024.84
2023-02-15T01:25:42.710Z,1024.82
2023-02-15T01:26:42.742Z,1024.83
2023-02-15T01:27:42.715Z,1024.81
2023-02-15T01:28:42.731Z,1024.80
2023-02-15T01:29:42.722Z,1024.77
2023-02-15T01:30:42.805Z,1024.79
2023-02-15T01:31:42.825Z,1024.79
2023-02-15T01:32:42.820Z,1024.73
2023-02-15T01:33:42.729Z,1024.73
2023-02-15T01:34:42.730Z,1024.74
2023-02-15T01:35:42.723Z,1024.73
2023-02-15T01:36:42.727Z,1024.73
2023-02-15T01:37:42.728Z,1024.71
2023-02-15T01:38:42.930Z,1024.71
2023-02-15T01:39:42.729Z,1024.71
2023-02-15T01:40:42.734Z,1024.69
2023-02-15T01:41:42.740Z,1024.72
2023-02-15T01:42:42.760Z,1024.70
2023-02-15T01:43:42.735Z,1024.67
2023-02-15T01:44:42.743Z,1024.67
2023-02-15T01:45:42.739Z,1024.64
2023-02-15T01:46:42.753Z,1024.59
2023-02-15T01:47:42.747Z,1024.57
2023-02-15T01:48:42.738Z,1024.58
2023-02-15T01:49:42.750Z,1024.54
2023-02-15T01:50:42.749Z,1024.58
2023-02-15T01:51:42.743Z,1024.54
2023-02-15T01:52:42.742Z,1024.53
2023-02-15T01:53:42.745Z,1024.49
2023-02-15T01:54:42.753Z,1024.52
2023-02-15T01:55:42.749Z,1024.49
2023-02-15T01:56:42.759Z,1024.47
2023-02-15T01:57:42.757Z,1024.43
2023-02-15T01:58:42.770Z,1024.42
2023-02-15T01:59:42.750Z,1024.40
2023-02-15T02:00:42.754Z,1024.38
2023-02-15T02:01:42.824Z,1024.38
2023-02-15T02:02:42.831Z,1024.38
2023-02-15T02:03:42.761Z,1024.36
2023-02-15T02:04:42.769Z,1024.38
2023-02-15T02:05:42.764Z,1024.38
2023-02-15T02:06:42.771Z,1024.38
2023-02-15T02:07:42.761Z,1024.43
2023-02-15T02:08:42.761Z,1024.40
2023-02-15T02:09:42.770Z,1024.40
2023-02-15T02:10:42.770Z,1024.38
2023-02-15T02:11:42.763Z,1024.33
2023-02-15T02:12:42.775Z,1024.27
2023-02-15T02:13:42.812Z,1024.30
2023-02-15T02:14:42.816Z,1024.28
2023-02-15T02:15:42.832Z,1024.27
2023-02-15T02:16:42.777Z,1024.25
2023-02-15T02:17:42.781Z,1024.25
2023-02-15T02:18:42.774Z,1024.25
2023-02-15T02:19:42.777Z,1024.21
2023-02-15T02:20:42.774Z,1024.20
2023-02-15T02:21:42.785Z,1024.19
2023-02-15T02:22:42.788Z,1024.20
2023-02-15T02:23:42.787Z,1024.21
2023-02-15T02:24:42.778Z,1024.18
2023-02-15T02:25:42.782Z,1024.17
2023-02-15T02:26:42.791Z,1024.16
2023-02-15T02:27:42.798Z,1024.15
2023-02-15T02:28:42.798Z,1024.11
2023-02-15T02:29:42.795Z,1024.12
2023-02-15T02:30:42.917Z,1024.12
2023-02-15T02:31:42.930Z,1024.12
2023-02-15T02:32:42.801Z,1024.12
2023-02-15T02:33:42.810Z,1024.15
2023-02-15T02:34:42.807Z,1024.10
2023-02-15T02:35:42.834Z,1024.07
2023-02-15T02:36:42.796Z,1024.09
2023-02-15T02:37:42.797Z,1024.12
2023-02-15T02:38:42.797Z,1024.10
2023-02-15T02:39:42.803Z,1024.06
2023-02-15T02:40:42.806Z,1024.03
2023-02-15T02:41:42.821Z,1024.06
2023-02-15T02:42:42.826Z,1024.01
2023-02-15T02:43:42.828Z,1024.04
2023-02-15T02:44:42.813Z,1024.01
2023-02-15T02:45:42.810Z,1024.04
2023-02-15T02:46:42.883Z,1024.04
2023-02-15T02:47:42.812Z,1024.04
2023-02-15T02:48:42.807Z,1024.00
2023-02-15T02:49:42.817Z,1024.02
2023-02-15T02:50:42.818Z,1023.99
2023-02-15T02:51:42.814Z,1023.98
2023-02-15T02:52:42.855Z,1023.95
2023-02-15T02:53:42.819Z,1023.97
2023-02-15T02:54:42.820Z,1023.93
2023-02-15T02:55:42.823Z,1023.93
2023-02-15T02:56:42.823Z,1023.98
2023-02-15T02:57:42.826Z,1023.89
2023-02-15T02:58:42.829Z,1023.87
2023-02-15T02:59:42.823Z,1023.90
2023-02-15T03:00:42.830Z,1023.88
2023-02-15T03:01:42.910Z,1023.90
2023-02-15T03:02:42.946Z,1023.87
2023-02-15T03:03:42.832Z,1023.91
2023-02-15T03:04:42.833Z,1023.87
2023-02-15T03:05:42.832Z,1023.87
2023-02-15T03:06:42.839Z,1023.87
2023-02-15T03:07:42.846Z,1023.88
2023-02-15T03:08:42.837Z,1023.87
2023-02-15T03:09:42.965Z,1023.86
2023-02-15T03:10:42.837Z,1023.83
2023-02-15T03:11:42.843Z,1023.82
2023-02-15T03:12:42.836Z,1023.79
2023-02-15T03:13:42.844Z,1023.78
2023-02-15T03:14:42.838Z,1023.82
2023-02-15T03:16:35.634Z,1023.79
2023-02-15T03:17:35.399Z,1023.79
2023-02-15T03:18:35.428Z,1023.79
2023-02-15T03:19:35.400Z,1023.76
2023-02-15T03:20:35.400Z,1023.76
2023-02-15T03:21:35.416Z,1023.73
2023-02-15T03:22:35.412Z,1023.73
2023-02-15T03:23:35.405Z,1023.69
2023-02-15T03:24:35.426Z,1023.73
2023-02-15T03:25:35.409Z,1023.70
2023-02-15T03:26:35.416Z,1023.66
2023-02-15T03:27:35.415Z,1023.64
2023-02-15T03:28:35.412Z,1023.67
2023-02-15T03:29:35.425Z,1023.63
2023-02-15T03:30:35.414Z,1023.61
2023-02-15T03:31:35.633Z,1023.62
2023-02-15T03:32:35.415Z,1023.63
2023-02-15T03:33:35.426Z,1023.62
2023-02-15T03:34:35.448Z,1023.64
2023-02-15T03:35:35.418Z,1023.64
2023-02-15T03:36:35.430Z,1023.62
2023-02-15T03:37:35.426Z,1023.64
2023-02-15T03:40:05.509Z,1023.59
2023-02-15T03:45:39.724Z,1023.54
2023-02-15T03:46:39.756Z,1023.55
2023-02-15T03:47:39.749Z,1023.54
2023-02-15T03:48:39.728Z,1023.56
2023-02-15T03:49:39.738Z,1023.55
2023-02-15T03:50:39.717Z,1023.58
2023-02-15T03:51:39.797Z,1023.54
2023-02-15T03:52:39.701Z,1023.53
2023-02-15T03:53:39.704Z,1023.54
2023-02-15T03:54:39.697Z,1023.52
2023-02-15T03:55:39.704Z,1023.52
2023-02-15T03:56:39.702Z,1023.52
2023-02-15T04:00:05.536Z,1023.52
2023-02-15T04:01:05.587Z,1023.54
2023-02-15T04:02:05.537Z,1023.54
2023-02-15T04:03:05.999Z,1023.49
2023-02-15T04:04:05.548Z,1023.50
2023-02-15T04:05:05.564Z,1023.49
2023-02-15T04:06:05.547Z,1023.52
2023-02-15T04:07:53.097Z,1023.47
2023-02-15T04:08:53.096Z,1023.49
2023-02-15T04:09:53.094Z,1023.49
2023-02-15T04:10:53.116Z,1023.50
2023-02-15T04:11:53.104Z,1023.45
2023-02-15T04:12:53.099Z,1023.43
2023-02-15T04:13:53.103Z,1023.48
2023-02-15T04:14:53.096Z,1023.46
2023-02-15T04:15:53.102Z,1023.40
2023-02-15T04:16:53.150Z,1023.38
2023-02-15T04:17:53.096Z,1023.35
2023-02-15T04:18:53.095Z,1023.33
2023-02-15T04:19:53.098Z,1023.33
2023-02-15T04:20:53.117Z,1023.36
2023-02-15T04:21:53.097Z,1023.37
2023-02-15T04:22:53.104Z,1023.33
2023-02-15T04:23:53.106Z,1023.36
2023-02-15T04:24:53.099Z,1023.31
2023-02-15T04:25:53.099Z,1023.32
2023-02-15T04:26:53.107Z,1023.30
2023-02-15T04:27:53.101Z,1023.34
2023-02-15T04:28:53.106Z,1023.32
2023-02-15T04:29:53.134Z,1023.34
2023-02-15T04:30:53.130Z,1023.32
2023-02-15T04:31:53.245Z,1023.34
2023-02-15T04:32:53.102Z,1023.30
2023-02-15T04:33:53.111Z,1023.33
2023-02-15T04:34:53.108Z,1023.33
2023-02-15T04:35:53.130Z,1023.31
2023-02-15T04:36:53.130Z,1023.35
2023-02-15T04:37:53.108Z,1023.27
2023-02-15T04:38:53.116Z,1023.29
2023-02-15T04:39:53.107Z,1023.28
2023-02-15T04:40:53.115Z,1023.29
2023-02-15T04:41:53.115Z,1023.30
2023-02-15T04:42:53.112Z,1023.29
2023-02-15T04:43:53.120Z,1023.24
2023-02-15T04:44:53.112Z,1023.25
2023-02-15T04:45:53.163Z,1023.27
2023-02-15T04:46:53.136Z,1023.26
2023-02-15T04:47:53.125Z,1023.21
2023-02-15T04:48:53.124Z,1023.23
2023-02-15T04:49:53.121Z,1023.27
2023-02-15T04:50:53.118Z,1023.21
2023-02-15T04:51:53.117Z,1023.24
2023-02-15T04:52:53.152Z,1023.27
2023-02-15T04:53:53.121Z,1023.23
2023-02-15T04:54:53.119Z,1023.24
2023-02-15T04:55:53.124Z,1023.25
2023-02-15T04:56:53.122Z,1023.23
2023-02-15T04:57:53.129Z,1023.21
2023-02-15T04:58:53.126Z,1023.19
2023-02-15T04:59:53.140Z,1023.17
2023-02-15T05:00:53.152Z,1023.14
2023-02-15T05:01:53.136Z,1023.17
2023-02-15T05:02:53.131Z,1023.15
2023-02-15T05:03:53.195Z,1023.11
2023-02-15T05:04:53.136Z,1023.17
2023-02-15T05:05:53.134Z,1023.12
2023-02-15T05:06:53.138Z,1023.08
2023-02-15T05:07:53.141Z,1023.10
2023-02-15T05:08:53.164Z,1023.06
2023-02-15T05:09:53.145Z,1023.01
2023-02-15T05:10:53.145Z,1023.03
2023-02-15T05:11:53.139Z,1023.03
2023-02-15T05:12:54.562Z,1023.00
2023-02-15T05:13:53.137Z,1022.96
2023-02-15T05:14:53.144Z,1022.95
2023-02-15T05:15:53.149Z,1023.02
2023-02-15T05:16:53.235Z,1023.01
2023-02-15T05:17:53.145Z,1023.00
2023-02-15T05:18:53.151Z,1023.04
2023-02-15T05:19:53.168Z,1023.06
2023-02-15T05:20:53.164Z,1023.09
2023-02-15T05:21:53.151Z,1023.06
2023-02-15T05:22:53.155Z,1023.08
2023-02-15T05:23:53.161Z,1023.06
2023-02-15T05:24:53.179Z,1023.02
2023-02-15T05:25:53.156Z,1023.03
2023-02-15T05:26:53.158Z,1023.04
2023-02-15T05:27:53.166Z,1023.02
2023-02-15T05:28:53.166Z,1022.95
2023-02-15T05:29:53.333Z,1022.99
2023-02-15T05:30:53.340Z,1023.01
2023-02-15T05:31:53.365Z,1023.01
2023-02-15T05:32:53.269Z,1023.00
2023-02-15T05:33:53.163Z,1022.98
2023-02-15T05:34:53.173Z,1022.97
2023-02-15T05:35:53.167Z,1022.99
2023-02-15T05:36:53.174Z,1023.00
2023-02-15T05:37:53.175Z,1022.94
2023-02-15T05:38:53.171Z,1022.98
2023-02-15T05:39:53.179Z,1023.02
2023-02-15T05:40:53.192Z,1023.01
2023-02-15T05:41:53.176Z,1023.00
2023-02-15T05:42:53.183Z,1022.99
2023-02-15T05:43:53.178Z,1022.99
2023-02-15T05:44:53.185Z,1022.99
2023-02-15T05:45:53.183Z,1023.02
2023-02-15T05:46:53.182Z,1022.98
2023-02-15T05:47:53.188Z,1022.97
2023-02-15T05:48:53.191Z,1022.99
2023-02-15T05:49:53.196Z,1023.01
2023-02-15T05:50:53.192Z,1022.96
2023-02-15T05:51:53.192Z,1022.96
2023-02-15T05:52:53.194Z,1022.98
2023-02-15T05:53:53.190Z,1022.92
2023-02-15T05:54:53.187Z,1022.97
2023-02-15T05:55:53.199Z,1022.90
2023-02-15T05:56:53.216Z,1022.90
2023-02-15T05:57:53.205Z,1022.90
2023-02-15T05:58:53.202Z,1022.88
2023-02-15T05:59:53.198Z,1022.88
2023-02-15T06:00:53.212Z,1022.89
2023-02-15T06:01:53.205Z,1022.89
2023-02-15T06:02:53.197Z,1022.90
2023-02-15T06:03:53.271Z,1022.90
2023-02-15T06:04:53.199Z,1022.90
2023-02-15T06:05:53.202Z,1022.94
2023-02-15T06:06:53.207Z,1022.93
2023-02-15T06:07:53.200Z,1022.98
2023-02-15T06:08:53.210Z,1022.94
2023-02-15T06:09:53.215Z,1022.95
2023-02-15T06:10:53.212Z,1022.97
2023-02-15T06:11:53.205Z,1022.91
2023-02-15T06:12:53.229Z,1022.90
2023-02-15T06:13:53.212Z,1022.96
2023-02-15T06:14:53.209Z,1022.92
2023-02-15T06:15:53.273Z,1022.94
2023-02-15T06:16:53.208Z,1022.97
2023-02-15T06:17:53.218Z,1023.00
2023-02-15T06:18:53.858Z,1022.98
2023-02-15T06:19:53.211Z,1022.98
2023-02-15T06:20:53.213Z,1022.99
2023-02-15T06:21:53.225Z,1022.99
2023-02-15T06:22:53.224Z,1022.99
2023-02-15T06:23:53.213Z,1023.01
2023-02-15T06:24:53.222Z,1023.01
2023-02-15T06:25:53.215Z,1023.01
2023-02-15T06:26:53.220Z,1022.97
2023-02-15T06:27:53.218Z,1023.01
2023-02-15T06:28:53.250Z,1022.94
2023-02-15T06:29:53.267Z,1022.97
2023-02-15T06:30:53.320Z,1022.92
2023-02-15T06:31:53.372Z,1022.93
2023-02-15T06:32:53.223Z,1022.96
2023-02-15T06:33:53.230Z,1022.92
2023-02-15T06:34:53.260Z,1022.94
2023-02-15T06:35:53.238Z,1022.93
2023-02-15T06:36:53.226Z,1022.95
2023-02-15T06:37:53.230Z,1022.94
2023-02-15T06:38:54.258Z,1022.95
2023-02-15T06:39:53.236Z,1022.96
2023-02-15T06:40:53.234Z,1022.96
2023-02-15T06:41:53.230Z,1022.93
2023-02-15T06:42:53.243Z,1022.97
2023-02-15T06:43:53.249Z,1022.96
2023-02-15T06:44:53.255Z,1022.96
2023-02-15T06:45:53.235Z,1022.94
2023-02-15T06:46:53.244Z,1022.92
2023-02-15T06:47:53.236Z,1022.92
2023-02-15T06:48:53.246Z,1022.87
2023-02-15T06:49:53.243Z,1022.87
2023-02-15T06:50:53.237Z,1022.87
2023-02-15T06:51:53.240Z,1022.85
2023-02-15T06:52:53.242Z,1022.90
2023-02-15T06:53:53.249Z,1022.91
2023-02-15T06:54:53.243Z,1022.89
2023-02-15T06:55:53.242Z,1022.88
2023-02-15T06:56:53.243Z,1022.88
2023-02-15T06:57:53.244Z,1022.87
2023-02-15T06:58:53.262Z,1022.87
2023-02-15T06:59:53.252Z,1022.86
2023-02-15T07:00:53.277Z,1022.90
2023-02-15T07:01:53.286Z,1022.94
2023-02-15T07:02:53.249Z,1022.93
2023-02-15T07:03:53.255Z,1022.94
2023-02-15T07:04:53.284Z,1022.96
2023-02-15T07:05:53.250Z,1022.99
2023-02-15T07:06:54.183Z,1022.94
2023-02-15T07:07:53.251Z,1022.96
2023-02-15T07:08:53.259Z,1023.01
2023-02-15T07:09:53.259Z,1022.91
2023-02-15T07:10:53.254Z,1022.94
2023-02-15T07:11:53.250Z,1022.90
2023-02-15T07:12:53.251Z,1022.84
2023-02-15T07:13:53.259Z,1022.87
2023-02-15T07:14:53.252Z,1022.84
2023-02-15T07:15:53.330Z,1022.80
2023-02-15T07:16:53.285Z,1022.81
2023-02-15T07:17:53.259Z,1022.85
2023-02-15T07:18:53.256Z,1022.82
2023-02-15T07:19:53.263Z,1022.83
2023-02-15T07:20:53.256Z,1022.77
2023-02-15T07:21:53.264Z,1022.77
2023-02-15T07:22:53.265Z,1022.74
2023-02-15T07:23:53.257Z,1022.71
2023-02-15T07:24:53.259Z,1022.72
2023-02-15T07:25:53.259Z,1022.70
2023-02-15T07:26:53.274Z,1022.68
2023-02-15T07:27:53.265Z,1022.75
2023-02-15T07:28:53.283Z,1022.68
2023-02-15T07:29:53.312Z,1022.68
2023-02-15T07:30:53.282Z,1022.72
2023-02-15T07:31:53.276Z,1022.68
2023-02-15T07:32:53.295Z,1022.67
2023-02-15T07:33:53.266Z,1022.70
2023-02-15T07:34:53.280Z,1022.65
2023-02-15T07:35:53.273Z,1022.68
2023-02-15T07:36:53.271Z,1022.69
2023-02-15T07:37:53.268Z,1022.67
2023-02-15T07:38:53.279Z,1022.66
2023-02-15T07:39:53.278Z,1022.68
2023-02-15T07:40:53.280Z,1022.71
2023-02-15T07:41:53.289Z,1022.66
2023-02-15T07:42:54.103Z,1022.65
2023-02-15T07:43:53.293Z,1022.67
2023-02-15T07:44:53.284Z,1022.65
2023-02-15T07:45:53.279Z,1022.62
2023-02-15T07:46:53.304Z,1022.62
2023-02-15T07:47:53.286Z,1022.61
2023-02-15T07:48:53.307Z,1022.61
2023-02-15T07:49:53.283Z,1022.60
2023-02-15T07:50:53.290Z,1022.62
2023-02-15T07:51:53.283Z,1022.65
2023-02-15T07:52:53.291Z,1022.64
2023-02-15T07:53:53.293Z,1022.57
2023-02-15T07:54:53.293Z,1022.57
2023-02-15T07:55:53.288Z,1022.58
2023-02-15T07:56:53.293Z,1022.56
2023-02-15T07:57:53.288Z,1022.53
2023-02-15T07:58:53.335Z,1022.56
2023-02-15T07:59:53.301Z,1022.58
2023-02-15T08:00:53.301Z,1022.55
2023-02-15T08:01:53.297Z,1022.52
2023-02-15T08:02:53.329Z,1022.60
2023-02-15T08:03:53.414Z,1022.57
2023-02-15T08:04:53.314Z,1022.58
2023-02-15T08:05:53.295Z,1022.59
2023-02-15T08:06:53.304Z,1022.58
2023-02-15T08:07:53.304Z,1022.59
2023-02-15T08:08:53.298Z,1022.64
2023-02-15T08:09:53.305Z,1022.60
2023-02-15T08:10:53.302Z,1022.60
2023-02-15T08:11:53.310Z,1022.64
2023-02-15T08:12:53.308Z,1022.65
2023-02-15T08:13:53.311Z,1022.66
2023-02-15T08:14:53.316Z,1022.63
2023-02-15T08:15:53.314Z,1022.68
2023-02-15T08:16:53.453Z,1022.64
2023-02-15T08:17:53.315Z,1022.62
2023-02-15T08:18:53.313Z,1022.59
2023-02-15T08:19:53.321Z,1022.60
2023-02-15T08:20:53.339Z,1022.60
2023-02-15T08:21:53.327Z,1022.58
2023-02-15T08:22:53.315Z,1022.60
2023-02-15T08:23:53.327Z,1022.55
2023-02-15T08:24:53.321Z,1022.54
2023-02-15T08:25:53.329Z,1022.56
2023-02-15T08:26:53.348Z,1022.54
2023-02-15T08:27:53.327Z,1022.56
2023-02-15T08:28:53.326Z,1022.53
2023-02-15T08:29:53.360Z,1022.49
2023-02-15T08:30:53.357Z,1022.50
2023-02-15T08:31:53.462Z,1022.50
2023-02-15T08:32:53.325Z,1022.47
2023-02-15T08:33:53.339Z,1022.51
2023-02-15T08:34:53.331Z,1022.47
2023-02-15T08:35:53.335Z,1022.49
2023-02-15T08:36:53.409Z,1022.51
2023-02-15T08:37:53.332Z,1022.48
2023-02-15T08:38:53.358Z,1022.50
2023-02-15T08:39:53.341Z,1022.48
2023-02-15T08:40:53.340Z,1022.48
2023-02-15T08:41:53.338Z,1022.51
2023-02-15T08:42:53.344Z,1022.50
2023-02-15T08:43:53.348Z,1022.48
2023-02-15T08:44:53.337Z,1022.47
2023-02-15T08:45:53.369Z,1022.40
2023-02-15T08:46:53.351Z,1022.37
2023-02-15T08:47:53.342Z,1022.35
2023-02-15T08:48:53.347Z,1022.37
2023-02-15T08:49:53.345Z,1022.37
2023-02-15T08:50:53.343Z,1022.37
2023-02-15T08:51:53.355Z,1022.34
2023-02-15T08:52:53.381Z,1022.39
2023-02-15T08:53:53.358Z,1022.40
2023-02-15T08:54:53.356Z,1022.40
2023-02-15T08:55:53.359Z,1022.33
2023-02-15T08:56:53.362Z,1022.32
2023-02-15T08:57:53.359Z,1022.33
2023-02-15T08:58:53.356Z,1022.35
2023-02-15T08:59:53.365Z,1022.34
2023-02-15T09:00:53.417Z,1022.34
2023-02-15T09:15:57.832Z,1022.35
2023-02-15T09:16:57.853Z,1022.29
2023-02-15T09:17:57.776Z,1022.26
2023-02-15T09:18:57.774Z,1022.28
2023-02-15T09:19:57.778Z,1022.29
2023-02-15T09:20:57.780Z,1022.31
2023-02-15T09:21:57.789Z,1022.26
2023-02-15T09:22:59.898Z,1022.22
2023-02-15T09:23:57.785Z,1022.28
2023-02-15T09:24:57.782Z,1022.27
2023-02-15T09:25:57.788Z,1022.28
2023-02-15T09:26:57.796Z,1022.21
2023-02-15T09:27:57.788Z,1022.26
2023-02-15T09:28:57.799Z,1022.25
2023-02-15T09:29:57.838Z,1022.24
2023-02-15T09:30:57.884Z,1022.23
2023-02-15T09:31:57.901Z,1022.26
2023-02-15T09:32:57.797Z,1022.20
2023-02-15T09:33:57.800Z,1022.20
2023-02-15T09:34:57.798Z,1022.23
2023-02-15T09:35:57.804Z,1022.22
2023-02-15T09:36:57.799Z,1022.19
2023-02-15T09:37:57.806Z,1022.23
2023-02-15T09:38:57.805Z,1022.13
2023-02-15T09:39:57.802Z,1022.11
2023-02-15T09:40:57.808Z,1022.06
2023-02-15T09:41:57.822Z,1022.09
2023-02-15T09:42:57.810Z,1022.07
2023-02-15T09:43:57.818Z,1022.07
2023-02-15T09:44:57.813Z,1022.07
2023-02-15T09:45:57.884Z,1022.09
2023-02-15T09:46:57.822Z,1022.10
2023-02-15T09:47:57.860Z,1022.09
2023-02-15T09:48:57.826Z,1022.09
2023-02-15T09:49:57.844Z,1022.10
2023-02-15T09:50:57.823Z,1022.13
2023-02-15T09:51:57.840Z,1022.09
2023-02-15T09:52:57.834Z,1022.11
2023-02-15T09:53:57.837Z,1022.08
2023-02-15T09:54:57.831Z,1022.08
2023-02-15T09:55:57.841Z,1022.08
2023-02-15T09:56:57.844Z,1022.10
2023-02-15T09:57:57.850Z,1022.09
2023-02-15T09:58:57.846Z,1022.08
2023-02-15T09:59:57.848Z,1022.09
2023-02-15T10:00:57.866Z,1022.06
2023-02-15T10:01:57.847Z,1022.08
2023-02-15T10:02:57.857Z,1022.08
2023-02-15T10:03:57.880Z,1022.10
2023-02-15T10:04:57.982Z,1022.09
2023-02-15T10:05:57.858Z,1022.12
2023-02-15T10:06:57.878Z,1022.16
2023-02-15T10:07:57.859Z,1022.19
2023-02-15T10:26:00.333Z,1022.10
2023-02-15T10:26:59.896Z,1022.05
2023-02-15T10:27:59.897Z,1022.07
2023-02-15T10:28:59.894Z,1022.07
2023-02-15T10:29:59.965Z,1022.05
2023-02-15T10:31:00.169Z,1022.06
2023-02-15T10:32:00.081Z,1022.05
2023-02-15T10:32:59.916Z,1022.04
2023-02-15T10:33:59.912Z,1022.01
2023-02-15T10:34:59.913Z,1022.00
2023-02-15T10:35:59.917Z,1022.00
2023-02-15T10:36:59.928Z,1021.97
2023-02-15T10:37:59.924Z,1021.96
2023-02-15T10:38:59.934Z,1021.96
2023-02-15T10:39:59.929Z,1021.96
2023-02-15T10:41:00.345Z,1021.95
2023-02-15T10:41:59.963Z,1021.89
2023-02-15T10:42:59.943Z,1021.90
2023-02-15T10:43:59.945Z,1021.85
2023-02-15T10:44:59.962Z,1021.85
2023-02-15T10:46:00.025Z,1021.81
2023-02-15T10:46:59.964Z,1021.78
2023-02-15T10:47:59.967Z,1021.81
2023-02-15T10:48:59.979Z,1021.79
2023-02-15T10:49:59.969Z,1021.78
2023-02-15T10:51:00.128Z,1021.77
2023-02-15T10:51:59.983Z,1021.77
2023-02-15T10:52:59.987Z,1021.77
2023-02-15T10:53:59.984Z,1021.78
2023-02-15T10:54:59.992Z,1021.77
2023-02-15T10:55:59.994Z,1021.77
2023-02-15T10:57:00.005Z,1021.74
2023-02-15T10:58:01.358Z,1021.73
2023-02-15T10:59:00.018Z,1021.69
2023-02-15T11:00:00.016Z,1021.66
2023-02-15T11:01:00.368Z,1021.63
2023-02-15T11:02:00.026Z,1021.65
2023-02-15T11:03:00.032Z,1021.61
2023-02-15T11:04:00.046Z,1021.61
2023-02-15T11:05:00.110Z,1021.61
2023-02-15T11:06:00.050Z,1021.64
2023-02-15T11:07:00.054Z,1021.61
2023-02-15T11:08:00.069Z,1021.59
2023-02-15T11:09:00.104Z,1021.58
2023-02-15T11:10:00.122Z,1021.57
2023-02-15T11:11:00.722Z,1021.60
2023-02-15T11:12:00.114Z,1021.63
2023-02-15T11:13:00.110Z,1021.64
2023-02-15T11:14:00.144Z,1021.63
2023-02-15T11:15:00.129Z,1021.61
2023-02-15T11:16:00.224Z,1021.61
2023-02-15T11:17:00.173Z,1021.58
2023-02-15T11:18:00.147Z,1021.59
2023-02-15T11:19:00.140Z,1021.49
2023-02-15T11:20:00.146Z,1021.47
2023-02-15T11:21:00.640Z,1021.44
2023-02-15T11:22:00.149Z,1021.48
2023-02-15T11:27:54.413Z,1021.41
2023-02-15T12:07:32.487Z,1020.38
2023-02-15T12:09:35.449Z,1020.38
2023-02-15T12:18:28.498Z,1020.30
2023-02-15T14:43:06.543Z,1018.92
2023-02-15T14:44:06.474Z,1018.90
2023-02-15T14:45:06.549Z,1018.91
2023-02-15T14:46:06.535Z,1018.93
2023-02-15T14:47:06.507Z,1018.94
2023-02-15T14:48:06.509Z,1018.91
2023-02-15T14:49:06.531Z,1018.93
2023-02-15T14:50:06.531Z,1018.94
2023-02-15T14:51:06.535Z,1018.95
2023-02-15T14:52:06.549Z,1018.95
2023-02-15T14:53:06.556Z,1018.94
2023-02-15T14:54:06.569Z,1018.99
2023-02-15T14:55:06.575Z,1018.95
2023-02-15T14:56:06.582Z,1018.99
2023-02-15T14:57:06.604Z,1019.01
2023-02-15T14:58:06.600Z,1019.01
2023-02-15T14:59:06.640Z,1019.06
2023-02-15T15:00:06.613Z,1019.03
2023-02-15T15:06:59.115Z,1019.03
2023-02-15T15:07:59.123Z,1019.03
2023-02-15T15:08:59.136Z,1019.09
2023-02-15T15:09:59.148Z,1019.04
2023-02-15T15:10:59.148Z,1019.04
2023-02-15T15:11:59.159Z,1019.06
2023-02-15T15:12:59.173Z,1019.07
2023-02-15T15:13:59.185Z,1019.00
2023-02-15T15:14:59.239Z,1019.00
2023-02-15T15:15:59.216Z,1019.06
2023-02-15T15:16:59.221Z,1019.05
2023-02-15T15:17:59.223Z,1019.03
2023-02-15T15:18:59.238Z,1019.03
2023-02-15T15:19:59.248Z,1019.01
2023-02-15T15:20:59.260Z,1019.04
2023-02-15T15:21:59.262Z,1019.04
2023-02-15T15:22:59.270Z,1019.07
2023-02-15T15:23:59.286Z,1019.03
2023-02-15T15:24:59.297Z,1019.02
2023-02-15T15:25:59.310Z,1019.01
2023-02-15T15:26:59.316Z,1019.04
2023-02-15T15:27:59.336Z,1019.02
2023-02-15T15:28:59.330Z,1019.01
2023-02-15T15:29:59.402Z,1018.98
2023-02-15T15:30:59.439Z,1018.95
2023-02-15T15:31:59.462Z,1018.93
2023-02-15T15:32:59.393Z,1018.89
2023-02-15T15:33:59.368Z,1018.91
2023-02-15T15:34:59.379Z,1018.90
2023-02-15T15:35:59.508Z,1018.86
2023-02-15T15:36:59.396Z,1018.87
2023-02-15T15:37:59.408Z,1018.83
2023-02-15T15:38:59.411Z,1018.80
2023-02-15T15:39:59.426Z,1018.77
2023-02-15T15:40:59.435Z,1018.77
2023-02-15T15:41:59.434Z,1018.77
2023-02-15T15:42:59.448Z,1018.73
2023-02-15T15:43:59.448Z,1018.74
2023-02-15T15:44:59.459Z,1018.74
2023-02-15T15:45:59.554Z,1018.68
2023-02-15T15:46:59.503Z,1018.70
2023-02-15T15:48:06.991Z,1018.70
2023-02-15T15:48:59.494Z,1018.73
2023-02-15T15:49:59.514Z,1018.73
2023-02-15T15:50:59.512Z,1018.75
2023-02-15T15:51:59.517Z,1018.72
2023-02-15T15:52:59.515Z,1018.78
2023-02-15T15:53:59.524Z,1018.70
2023-02-15T15:54:59.530Z,1018.71
2023-02-15T15:55:59.864Z,1018.75
2023-02-15T15:56:59.556Z,1018.77
2023-02-15T15:57:59.561Z,1018.74
2023-02-15T15:58:59.561Z,1018.78
2023-02-15T15:59:59.570Z,1018.76
2023-02-15T16:00:59.575Z,1018.77
2023-02-15T16:01:59.633Z,1018.76
2023-02-15T16:02:59.658Z,1018.77
2023-02-15T16:03:59.605Z,1018.74
2023-02-15T16:04:59.610Z,1018.73
2023-02-15T16:05:59.613Z,1018.74
2023-02-15T16:06:59.614Z,1018.77
2023-02-15T16:07:59.631Z,1018.77
2023-02-15T16:08:59.628Z,1018.80